Reid, Mississippi
Current Conditions -  °F | °C
As of 4:41 PM on Sunday 23 Nov 2014 (Local Time) from KTUP Reporting Station
Light Rain Light Rain  
Wind Chill: 62°   Ceiling: 1600
Heat Index: 62°   Visibility: 10mi
Dew Point: 59°   Wind: 28mph
Humidity: 90%   Direction: 190°S
Pressure: 29.43"   Gusts: 35mph
Location:  33.9472°N, 89.1968°W
Report Text: KTUP 232241Z 19024G30KT 10SM -RA SCT011 BKN016 OVC021 17/15 A2943 RMK AO2 P0007 T01670150 $
Loading
Personal Weather Stations






























Interactive Weather Map New forecast layout! Learn more

10-Day Weather Forecast

Advertisements
Track Severe Weather on mobile